createdAt,value
2023-08-04T00:00:41.201Z,97.02
2023-08-04T00:01:41.203Z,96.82
2023-08-04T00:02:41.222Z,96.82
2023-08-04T00:03:41.168Z,96.82
2023-08-04T00:04:41.158Z,96.72
2023-08-04T00:05:41.228Z,96.62
2023-08-04T00:06:41.140Z,96.51
2023-08-04T00:07:41.116Z,96.72
2023-08-04T00:08:41.134Z,96.51
2023-08-04T00:09:41.089Z,96.42
2023-08-04T00:10:41.098Z,96.42
2023-08-04T00:11:41.067Z,96.51
2023-08-04T00:12:41.045Z,96.51
2023-08-04T00:13:41.065Z,96.62
2023-08-04T00:14:41.007Z,96.62
2023-08-04T00:15:41.001Z,96.51
2023-08-04T00:16:41.038Z,96.51
2023-08-04T00:17:41.025Z,96.51
2023-08-04T00:18:40.962Z,96.72
2023-08-04T00:19:40.948Z,96.82
2023-08-04T00:20:40.937Z,97.13
2023-08-04T00:21:40.924Z,97.33
2023-08-04T00:22:41.009Z,97.23
2023-08-04T00:23:40.924Z,96.92
2023-08-04T00:24:40.882Z,96.92
2023-08-04T00:25:40.880Z,96.72
2023-08-04T00:26:40.859Z,96.62
2023-08-04T00:27:40.896Z,96.82
2023-08-04T00:28:40.845Z,97.07
2023-08-04T00:29:40.811Z,96.97
2023-08-04T00:30:40.907Z,96.87
2023-08-04T00:31:40.811Z,96.97
2023-08-04T00:32:40.827Z,96.87
2023-08-04T00:33:40.784Z,96.77
2023-08-04T00:34:40.732Z,96.87
2023-08-04T00:35:40.721Z,96.77
2023-08-04T00:36:40.717Z,96.77
2023-08-04T00:37:40.731Z,96.62
2023-08-04T00:38:40.698Z,96.46
2023-08-04T00:39:40.780Z,96.26
2023-08-04T00:40:40.674Z,96.36
2023-08-04T00:41:40.645Z,96.26
2023-08-04T00:42:40.636Z,96.56
2023-08-04T00:43:40.635Z,96.97
2023-08-04T00:44:40.639Z,96.87
2023-08-04T00:45:40.655Z,97.17
2023-08-04T00:46:40.597Z,97.38
2023-08-04T00:47:40.607Z,97.38
2023-08-04T00:48:40.552Z,97.38
2023-08-04T00:49:40.538Z,97.38
2023-08-04T00:50:40.537Z,97.47
2023-08-04T00:51:40.509Z,97.27
2023-08-04T00:52:40.501Z,97.27
2023-08-04T00:53:40.480Z,97.27
2023-08-04T00:54:40.464Z,97.17
2023-08-04T00:55:40.479Z,97.17
2023-08-04T00:56:40.455Z,97.07
2023-08-04T00:57:40.437Z,97.07
2023-08-04T00:58:40.417Z,97.17
2023-08-04T00:59:40.402Z,97.17
2023-08-04T01:00:40.377Z,97.27
2023-08-04T01:01:40.449Z,97.27
2023-08-04T01:02:40.431Z,97.07
2023-08-04T01:03:40.468Z,96.66
2023-08-04T01:04:40.337Z,96.77
2023-08-04T01:05:40.340Z,96.46
2023-08-04T01:06:40.303Z,96.56
2023-08-04T01:07:40.321Z,96.56
2023-08-04T01:08:40.277Z,96.56
2023-08-04T01:09:40.283Z,96.46
2023-08-04T01:10:40.256Z,96.26
2023-08-04T01:11:40.248Z,96.46
2023-08-04T01:12:40.264Z,96.66
2023-08-04T01:13:40.215Z,96.56
2023-08-04T01:14:40.195Z,96.46
2023-08-04T01:15:40.245Z,96.66
2023-08-04T01:16:40.160Z,96.66
2023-08-04T01:17:40.201Z,96.66
2023-08-04T01:18:40.137Z,96.36
2023-08-04T01:19:40.128Z,96.00
2023-08-04T01:20:40.115Z,96.81
2023-08-04T01:21:40.106Z,97.02
2023-08-04T01:22:40.080Z,97.11
2023-08-04T01:23:40.110Z,97.02
2023-08-04T01:24:40.113Z,97.02
2023-08-04T01:25:40.062Z,96.81
2023-08-04T01:26:40.030Z,96.81
2023-08-04T01:27:40.126Z,97.02
2023-08-04T01:28:40.012Z,97.02
2023-08-04T01:29:40.040Z,97.22
2023-08-04T01:30:40.047Z,97.42
2023-08-04T01:31:39.980Z,97.42
2023-08-04T01:32:39.990Z,97.32
2023-08-04T01:33:39.971Z,97.32
2023-08-04T01:34:39.949Z,97.22
2023-08-04T01:35:39.927Z,97.02
2023-08-04T01:36:39.908Z,96.91
2023-08-04T01:37:39.870Z,96.91
2023-08-04T01:38:39.873Z,96.71
2023-08-04T01:39:39.867Z,96.71
2023-08-04T01:40:39.876Z,96.81
2023-08-04T01:41:39.817Z,96.81
2023-08-04T01:42:39.811Z,96.81
2023-08-04T01:43:39.793Z,96.81
2023-08-04T01:44:39.779Z,96.71
2023-08-04T01:45:39.866Z,96.91
2023-08-04T01:46:39.774Z,97.02
2023-08-04T01:47:39.783Z,97.11
2023-08-04T01:48:39.721Z,97.11
2023-08-04T01:49:39.742Z,97.02
2023-08-04T01:50:39.737Z,97.02
2023-08-04T01:51:39.698Z,97.02
2023-08-04T01:52:39.683Z,97.02
2023-08-04T01:53:39.734Z,97.02
2023-08-04T01:54:39.637Z,97.22
2023-08-04T01:55:39.626Z,97.22
2023-08-04T01:56:39.631Z,96.81
2023-08-04T01:57:39.601Z,96.61
2023-08-04T01:58:39.582Z,95.79
2023-08-04T01:59:39.572Z,95.29
2023-08-04T02:00:39.576Z,94.83
2023-08-04T02:01:39.588Z,95.34
2023-08-04T02:02:39.667Z,95.74
2023-08-04T02:03:39.577Z,96.00
2023-08-04T02:04:39.503Z,96.35
2023-08-04T02:05:39.485Z,96.45
2023-08-04T02:06:39.488Z,96.35
2023-08-04T02:07:39.497Z,95.74
2023-08-04T02:08:39.460Z,95.54
2023-08-04T02:09:39.456Z,95.43
2023-08-04T02:10:39.418Z,95.59
2023-08-04T02:11:39.432Z,95.84
2023-08-04T02:12:39.434Z,96.35
2023-08-04T02:13:39.410Z,96.66
2023-08-04T02:14:39.377Z,96.35
2023-08-04T02:15:39.377Z,97.06
2023-08-04T02:16:39.346Z,97.16
2023-08-04T02:17:39.370Z,97.26
2023-08-04T02:18:39.320Z,97.26
2023-08-04T02:19:39.344Z,97.11
2023-08-04T02:20:39.299Z,96.90
2023-08-04T02:21:39.299Z,96.60
2023-08-04T02:22:39.275Z,96.30
2023-08-04T02:23:39.259Z,96.09
2023-08-04T02:24:39.252Z,96.19
2023-08-04T02:25:39.245Z,96.30
2023-08-04T02:26:39.210Z,96.19
2023-08-04T02:27:39.191Z,96.30
2023-08-04T02:28:39.169Z,96.55
2023-08-04T02:29:39.174Z,96.55
2023-08-04T02:30:39.174Z,96.55
2023-08-04T02:31:39.182Z,96.25
2023-08-04T02:32:39.165Z,95.54
2023-08-04T02:33:39.156Z,95.43
2023-08-04T02:34:39.109Z,95.54
2023-08-04T02:35:39.104Z,95.43
2023-08-04T02:36:39.091Z,95.34
2023-08-04T02:37:39.075Z,95.54
2023-08-04T02:38:39.067Z,95.54
2023-08-04T02:39:39.041Z,95.84
2023-08-04T02:40:39.022Z,95.94
2023-08-04T02:41:39.003Z,96.15
2023-08-04T02:42:39.025Z,96.25
2023-08-04T02:43:38.993Z,96.15
2023-08-04T02:44:38.969Z,96.35
2023-08-04T02:45:38.956Z,96.45
2023-08-04T02:46:38.976Z,96.45
2023-08-04T02:47:38.948Z,96.35
2023-08-04T02:48:38.933Z,96.15
2023-08-04T02:49:40.858Z,96.25
2023-08-04T02:50:38.905Z,96.35
2023-08-04T02:51:38.881Z,96.25
2023-08-04T02:52:38.862Z,96.35
2023-08-04T02:53:38.858Z,96.25
2023-08-04T02:54:38.869Z,96.15
2023-08-04T02:55:38.832Z,96.04
2023-08-04T02:56:38.804Z,96.04
2023-08-04T02:57:38.805Z,96.25
2023-08-04T02:58:38.822Z,96.45
2023-08-04T02:59:38.761Z,96.45
2023-08-04T03:00:38.827Z,96.55
2023-08-04T03:01:38.720Z,96.35
2023-08-04T03:02:38.772Z,96.25
2023-08-04T03:03:38.703Z,96.25
2023-08-04T03:04:38.685Z,96.15
2023-08-04T03:05:38.700Z,96.15
2023-08-04T03:06:38.662Z,96.04
2023-08-04T03:07:38.661Z,96.04
2023-08-04T03:08:38.645Z,96.15
2023-08-04T03:09:38.630Z,96.35
2023-08-04T03:10:38.628Z,96.35
2023-08-04T03:11:38.631Z,96.15
2023-08-04T03:12:38.612Z,96.15
2023-08-04T03:13:38.579Z,96.15
2023-08-04T03:14:38.562Z,96.45
2023-08-04T03:15:38.532Z,96.66
2023-08-04T03:16:38.621Z,96.75
2023-08-04T03:17:38.617Z,96.75
2023-08-04T03:18:38.515Z,96.75
2023-08-04T03:19:38.493Z,96.80
2023-08-04T03:20:38.477Z,97.31
2023-08-04T03:21:38.467Z,97.20
2023-08-04T03:22:38.463Z,97.11
2023-08-04T03:23:38.481Z,97.00
2023-08-04T03:24:38.429Z,97.00
2023-08-04T03:25:38.425Z,97.11
2023-08-04T03:26:38.393Z,97.20
2023-08-04T03:27:38.384Z,97.11
2023-08-04T03:28:38.385Z,97.00
2023-08-04T03:29:38.343Z,97.11
2023-08-04T03:30:38.324Z,97.11
2023-08-04T03:31:38.364Z,97.00
2023-08-04T03:32:38.343Z,96.80
2023-08-04T03:33:38.325Z,96.60
2023-08-04T03:34:38.321Z,95.79
2023-08-04T03:35:38.279Z,95.58
2023-08-04T03:36:38.266Z,94.77
2023-08-04T03:37:38.243Z,94.26
2023-08-04T03:38:38.260Z,93.76
2023-08-04T03:39:38.245Z,93.76
2023-08-04T03:40:38.204Z,92.84
2023-08-04T03:41:38.180Z,93.15
2023-08-04T03:42:38.170Z,93.35
2023-08-04T03:43:38.229Z,93.45
2023-08-04T03:44:38.134Z,93.35
2023-08-04T03:45:38.163Z,93.45
2023-08-04T03:46:38.156Z,93.86
2023-08-04T03:47:38.138Z,93.76
2023-08-04T03:48:38.096Z,93.55
2023-08-04T03:49:38.080Z,93.55
2023-08-04T03:50:38.054Z,92.84
2023-08-04T03:51:38.087Z,92.84
2023-08-04T03:52:38.057Z,92.64
2023-08-04T03:53:38.015Z,92.64
2023-08-04T03:54:38.001Z,92.33
2023-08-04T03:55:37.991Z,92.74
2023-08-04T03:56:37.997Z,92.13
2023-08-04T03:57:37.964Z,92.64
2023-08-04T03:58:37.964Z,93.25
2023-08-04T03:59:37.950Z,93.15
2023-08-04T04:00:37.919Z,93.35
2023-08-04T04:01:37.935Z,93.15
2023-08-04T04:02:37.954Z,93.35
2023-08-04T04:03:37.957Z,93.05
2023-08-04T04:04:37.917Z,93.65
2023-08-04T04:05:37.856Z,93.86
2023-08-04T04:06:37.852Z,93.86
2023-08-04T04:07:37.832Z,93.96
2023-08-04T04:08:37.832Z,94.26
2023-08-04T04:09:37.793Z,94.37
2023-08-04T04:10:37.782Z,94.98
2023-08-04T04:11:37.797Z,94.87
2023-08-04T04:12:37.787Z,94.98
2023-08-04T04:13:37.767Z,94.98
2023-08-04T04:14:37.763Z,93.35
2023-08-04T04:15:37.721Z,92.84
2023-08-04T04:16:37.713Z,92.33
2023-08-04T04:17:37.705Z,92.54
2023-08-04T04:18:37.700Z,93.35
2023-08-04T04:19:37.689Z,93.65
2023-08-04T04:20:37.654Z,93.55
2023-08-04T04:21:37.631Z,94.17
2023-08-04T04:22:37.625Z,94.46
2023-08-04T04:23:37.953Z,94.98
2023-08-04T04:24:37.612Z,95.42
2023-08-04T04:25:37.698Z,94.92
2023-08-04T04:26:37.582Z,94.82
2023-08-04T04:27:37.594Z,94.21
2023-08-04T04:28:37.576Z,94.21
2023-08-04T04:29:37.523Z,93.80
2023-08-04T04:30:37.610Z,93.90
2023-08-04T04:31:37.625Z,93.60
2023-08-04T04:32:37.515Z,93.29
2023-08-04T04:33:37.493Z,93.19
2023-08-04T04:34:37.466Z,92.94
2023-08-04T04:35:37.449Z,93.15
2023-08-04T04:36:37.545Z,92.84
2023-08-04T04:37:37.444Z,93.05
2023-08-04T04:38:37.405Z,92.54
2023-08-04T04:39:37.402Z,91.73
2023-08-04T04:40:37.372Z,91.93
2023-08-04T04:41:37.426Z,92.44
2023-08-04T04:42:37.378Z,93.05
2023-08-04T04:43:37.340Z,93.35
2023-08-04T04:44:37.348Z,93.65
2023-08-04T04:45:37.304Z,93.65
2023-08-04T04:46:37.378Z,93.45
2023-08-04T04:47:37.320Z,93.45
2023-08-04T04:48:37.297Z,92.64
2023-08-04T04:49:37.254Z,92.24
2023-08-04T04:50:37.242Z,92.54
2023-08-04T04:51:37.240Z,93.25
2023-08-04T04:52:37.199Z,93.35
2023-08-04T04:53:37.229Z,93.25
2023-08-04T04:54:37.210Z,92.84
2023-08-04T04:55:37.162Z,92.54
2023-08-04T04:56:37.162Z,92.74
2023-08-04T04:57:37.154Z,93.55
2023-08-04T04:58:37.145Z,93.76
2023-08-04T04:59:37.168Z,93.55
2023-08-04T05:00:37.109Z,93.25
2023-08-04T05:01:37.110Z,93.55
2023-08-04T05:02:37.129Z,93.55
2023-08-04T05:03:37.076Z,93.65
2023-08-04T05:04:37.088Z,93.96
2023-08-04T05:05:37.059Z,93.96
2023-08-04T05:06:37.033Z,92.74
2023-08-04T05:07:37.009Z,93.25
2023-08-04T05:08:36.994Z,93.55
2023-08-04T05:09:37.086Z,93.55
2023-08-04T05:10:36.997Z,93.45
2023-08-04T05:11:36.943Z,93.96
2023-08-04T05:12:36.942Z,93.35
2023-08-04T05:13:36.917Z,93.65
2023-08-04T05:14:36.942Z,94.46
2023-08-04T05:15:36.937Z,94.57
2023-08-04T05:16:36.950Z,95.28
2023-08-04T05:17:36.903Z,95.89
2023-08-04T05:18:36.878Z,95.07
2023-08-04T05:19:36.857Z,93.86
2023-08-04T05:20:36.850Z,93.65
2023-08-04T05:21:36.810Z,93.55
2023-08-04T05:22:36.830Z,93.45
2023-08-04T05:23:36.786Z,93.45
2023-08-04T05:24:36.776Z,92.94
2023-08-04T05:25:36.782Z,93.05
2023-08-04T05:26:36.744Z,92.84
2023-08-04T05:27:36.760Z,92.64
2023-08-04T05:28:36.728Z,93.15
2023-08-04T05:29:36.712Z,92.84
2023-08-04T05:30:36.686Z,92.90
2023-08-04T05:31:36.705Z,93.10
2023-08-04T05:32:36.710Z,93.30
2023-08-04T05:33:36.692Z,93.21
2023-08-04T05:34:36.636Z,92.60
2023-08-04T05:35:36.627Z,92.70
2023-08-04T05:36:36.695Z,93.10
2023-08-04T05:37:36.588Z,93.10
2023-08-04T05:38:36.593Z,92.90
2023-08-04T05:39:36.617Z,92.90
2023-08-04T05:40:38.942Z,93.00
2023-08-04T05:41:36.550Z,93.41
2023-08-04T05:42:36.543Z,93.41
2023-08-04T05:43:36.514Z,93.71
2023-08-04T05:44:36.520Z,93.41
2023-08-04T05:45:36.566Z,92.60
2023-08-04T05:46:36.486Z,92.60
2023-08-04T05:47:36.468Z,92.60
2023-08-04T05:48:36.465Z,92.90
2023-08-04T05:49:36.454Z,93.21
2023-08-04T05:50:36.519Z,92.70
2023-08-04T05:51:36.431Z,92.60
2023-08-04T05:52:36.389Z,92.60
2023-08-04T05:53:36.384Z,92.35
2023-08-04T05:54:36.371Z,91.54
2023-08-04T05:55:36.373Z,92.14
2023-08-04T05:56:36.383Z,92.55
2023-08-04T05:57:36.312Z,91.64
2023-08-04T05:58:36.320Z,92.14
2023-08-04T05:59:36.309Z,92.05
2023-08-04T06:00:36.280Z,91.03
2023-08-04T06:01:36.280Z,90.62
2023-08-04T06:02:36.319Z,90.62
2023-08-04T06:03:36.266Z,90.89
2023-08-04T06:04:36.244Z,90.69
2023-08-04T06:05:36.221Z,90.58
2023-08-04T06:06:36.207Z,90.99
2023-08-04T06:07:36.197Z,91.19
2023-08-04T06:08:36.244Z,91.19
2023-08-04T06:09:36.164Z,90.79
2023-08-04T06:10:36.156Z,90.38
2023-08-04T06:11:36.139Z,90.18
2023-08-04T06:12:36.156Z,90.89
2023-08-04T06:13:36.118Z,90.48
2023-08-04T06:14:36.135Z,89.87
2023-08-04T06:15:36.086Z,90.38
2023-08-04T06:16:36.063Z,90.84
2023-08-04T06:17:36.068Z,90.14
2023-08-04T06:18:36.031Z,88.51
2023-08-04T06:19:36.030Z,87.71
2023-08-04T06:20:36.032Z,88.51
2023-08-04T06:21:35.997Z,87.91
2023-08-04T06:22:36.083Z,88.72
2023-08-04T06:23:35.979Z,89.12
2023-08-04T06:24:35.961Z,89.43
2023-08-04T06:25:35.937Z,89.94
2023-08-04T06:26:35.948Z,89.23
2023-08-04T06:27:35.904Z,89.83
2023-08-04T06:28:35.903Z,90.03
2023-08-04T06:29:35.912Z,90.14
2023-08-04T06:30:35.905Z,88.82
2023-08-04T06:31:35.924Z,87.91
2023-08-04T06:32:35.856Z,88.68
2023-08-04T06:33:35.834Z,89.39
2023-08-04T06:34:35.838Z,89.28
2023-08-04T06:35:35.813Z,88.78
2023-08-04T06:36:35.800Z,89.79
2023-08-04T06:37:35.807Z,88.27
2023-08-04T06:38:35.778Z,89.39
2023-08-04T06:39:35.782Z,89.59
2023-08-04T06:40:35.776Z,87.97
2023-08-04T06:41:35.728Z,87.87
2023-08-04T06:42:35.741Z,87.56
2023-08-04T06:43:35.731Z,87.87
2023-08-04T06:44:35.686Z,87.77
2023-08-04T06:45:35.720Z,87.51
2023-08-04T06:46:35.665Z,88.31
2023-08-04T06:47:35.704Z,88.78
2023-08-04T06:48:35.656Z,88.78
2023-08-04T06:49:35.620Z,87.97
2023-08-04T06:50:36.128Z,88.17
2023-08-04T06:51:35.598Z,87.36
2023-08-04T06:52:35.577Z,87.16
2023-08-04T06:53:35.623Z,87.56
2023-08-04T06:54:35.587Z,88.48
2023-08-04T06:55:35.533Z,88.48
2023-08-04T06:56:35.506Z,86.45
2023-08-04T06:57:35.522Z,86.85
2023-08-04T06:58:35.495Z,87.36
2023-08-04T06:59:35.476Z,87.66
2023-08-04T07:00:35.503Z,87.16
2023-08-04T07:01:35.540Z,86.05
2023-08-04T07:02:35.576Z,85.64
2023-08-04T07:03:35.466Z,86.05
2023-08-04T07:04:35.424Z,86.85
2023-08-04T07:05:35.427Z,86.49
2023-08-04T07:06:35.401Z,86.19
2023-08-04T07:07:35.375Z,86.29
2023-08-04T07:08:35.370Z,86.76
2023-08-04T07:09:35.341Z,86.15
2023-08-04T07:10:35.323Z,86.96
2023-08-04T07:11:35.353Z,87.05
2023-08-04T07:12:35.297Z,87.36
2023-08-04T07:13:35.328Z,87.05
2023-08-04T07:14:35.286Z,86.96
2023-08-04T07:15:35.310Z,87.26
2023-08-04T07:16:35.256Z,86.45
2023-08-04T07:17:35.276Z,86.76
2023-08-04T07:18:35.232Z,85.84
2023-08-04T07:19:35.217Z,87.16
2023-08-04T07:20:35.192Z,87.05
2023-08-04T07:21:35.185Z,86.05
2023-08-04T07:22:35.216Z,86.15
2023-08-04T07:23:35.156Z,86.76
2023-08-04T07:24:35.146Z,86.91
2023-08-04T07:25:35.126Z,86.91
2023-08-04T07:26:35.110Z,88.13
2023-08-04T07:27:35.149Z,85.90
2023-08-04T07:28:35.117Z,85.19
2023-08-04T07:29:35.072Z,84.19
2023-08-04T07:30:35.058Z,85.10
2023-08-04T07:31:35.270Z,85.05
2023-08-04T07:32:35.049Z,86.16
2023-08-04T07:33:35.042Z,86.57
2023-08-04T07:34:35.034Z,87.58
2023-08-04T07:35:35.013Z,86.98
2023-08-04T07:36:34.978Z,87.28
2023-08-04T07:37:34.953Z,88.25
2023-08-04T07:38:34.952Z,82.93
2023-08-04T07:39:34.976Z,83.19
2023-08-04T07:40:34.926Z,83.50
2023-08-04T07:41:35.009Z,83.70
2023-08-04T07:42:34.969Z,82.28
2023-08-04T07:43:34.890Z,82.99
2023-08-04T07:44:34.874Z,84.31
2023-08-04T07:45:34.897Z,83.29
2023-08-04T07:46:34.964Z,83.29
2023-08-04T07:47:34.848Z,84.00
2023-08-04T07:48:34.808Z,84.61
2023-08-04T07:49:34.798Z,85.93
2023-08-04T07:50:34.784Z,87.04
2023-08-04T07:51:34.795Z,87.04
2023-08-04T07:52:34.767Z,85.82
2023-08-04T07:53:34.752Z,83.64
2023-08-04T07:54:34.728Z,83.94
2023-08-04T07:55:34.710Z,84.65
2023-08-04T07:56:34.712Z,84.65
2023-08-04T07:57:34.726Z,85.46
2023-08-04T07:58:34.677Z,85.86
2023-08-04T07:59:34.666Z,85.86
2023-08-04T08:00:34.767Z,86.16
2023-08-04T08:01:34.627Z,86.07
2023-08-04T08:02:34.707Z,86.16
2023-08-04T08:03:34.739Z,84.95
2023-08-04T08:04:34.667Z,84.85
2023-08-04T08:05:34.585Z,83.84
2023-08-04T08:06:34.652Z,84.45
2023-08-04T08:07:44.780Z,85.36
2023-08-04T08:08:34.562Z,86.87
2023-08-04T08:09:34.604Z,87.54
2023-08-04T08:10:34.533Z,87.34
2023-08-04T08:11:34.511Z,87.74
2023-08-04T08:12:34.498Z,88.04
2023-08-04T08:13:34.472Z,87.64
2023-08-04T08:14:34.524Z,87.24
2023-08-04T08:15:34.493Z,86.83
2023-08-04T08:16:34.476Z,86.13
2023-08-04T08:17:34.436Z,85.52
2023-08-04T08:18:34.412Z,85.42
2023-08-04T08:19:34.387Z,86.02
2023-08-04T08:20:34.412Z,85.02
2023-08-04T08:21:34.377Z,85.17
2023-08-04T08:22:34.364Z,84.57
2023-08-04T08:23:34.355Z,85.38
2023-08-04T08:24:34.338Z,86.49
2023-08-04T08:25:34.327Z,85.99
2023-08-04T08:26:34.334Z,84.87
2023-08-04T08:27:34.293Z,83.86
2023-08-04T08:28:34.282Z,83.56
2023-08-04T08:29:34.260Z,83.26
2023-08-04T08:30:34.337Z,83.05
2023-08-04T08:31:34.395Z,81.54
2023-08-04T08:32:34.302Z,80.63
2023-08-04T08:33:34.218Z,81.44
2023-08-04T08:34:34.212Z,82.01
2023-08-04T08:35:35.164Z,83.62
2023-08-04T08:36:34.191Z,83.72
2023-08-04T08:37:34.193Z,84.63
2023-08-04T08:38:34.126Z,84.63
2023-08-04T08:39:34.125Z,85.03
2023-08-04T08:40:34.182Z,85.84
2023-08-04T08:41:34.193Z,85.84
2023-08-04T08:42:34.090Z,85.64
2023-08-04T08:43:34.112Z,85.54
2023-08-04T08:44:34.071Z,85.84
2023-08-04T08:45:34.085Z,86.10
2023-08-04T08:46:34.042Z,86.51
2023-08-04T08:47:34.019Z,86.91
2023-08-04T08:48:33.990Z,84.99
2023-08-04T08:49:34.000Z,84.09
2023-08-04T08:50:33.968Z,84.39
2023-08-04T08:51:34.208Z,84.99
2023-08-04T08:52:33.949Z,84.89
2023-08-04T08:53:33.946Z,85.19
2023-08-04T08:54:34.058Z,83.78
2023-08-04T08:55:33.906Z,83.28
2023-08-04T08:56:33.897Z,84.39
2023-08-04T08:57:33.890Z,84.19
2023-08-04T08:58:33.878Z,83.38
2023-08-04T08:59:33.878Z,83.74
2023-08-04T09:00:33.865Z,84.35
2023-08-04T09:01:33.855Z,84.05
2023-08-04T09:02:33.835Z,83.44
2023-08-04T09:03:33.830Z,84.65
2023-08-04T09:04:33.772Z,84.15
2023-08-04T09:05:33.835Z,82.93
2023-08-04T09:06:33.763Z,81.82
2023-08-04T09:07:33.740Z,82.13
2023-08-04T09:08:33.736Z,81.59
2023-08-04T09:09:33.713Z,83.80
2023-08-04T09:10:33.726Z,84.31
2023-08-04T09:11:33.732Z,84.01
2023-08-04T09:12:33.671Z,84.31
2023-08-04T09:13:33.649Z,83.10
2023-08-04T09:14:33.640Z,83.60
2023-08-04T09:15:33.635Z,84.41
2023-08-04T09:16:33.693Z,83.91
2023-08-04T09:17:33.651Z,83.60
2023-08-04T09:18:33.608Z,81.79
2023-08-04T09:19:33.625Z,81.89
2023-08-04T09:20:33.634Z,83.50
2023-08-04T09:21:33.565Z,84.61
2023-08-04T09:22:33.555Z,83.40
2023-08-04T09:23:33.522Z,82.90
2023-08-04T09:24:33.496Z,81.28
2023-08-04T09:25:33.524Z,81.79
2023-08-04T09:26:33.480Z,83.06
2023-08-04T09:27:33.492Z,83.87
2023-08-04T09:28:33.441Z,82.86
2023-08-04T09:29:33.481Z,83.26
2023-08-04T09:30:33.422Z,83.56
2023-08-04T09:31:33.477Z,83.97
2023-08-04T09:32:33.437Z,83.16
2023-08-04T09:33:33.385Z,82.05
2023-08-04T09:34:33.374Z,82.35
2023-08-04T09:35:33.374Z,81.45
2023-08-04T09:36:33.345Z,80.84
2023-08-04T09:37:33.345Z,80.84
2023-08-04T09:38:33.323Z,80.54
2023-08-04T09:39:33.315Z,80.84
2023-08-04T09:40:33.283Z,80.80
2023-08-04T09:41:33.293Z,80.90
2023-08-04T09:42:33.260Z,81.21
2023-08-04T09:43:33.264Z,81.10
2023-08-04T09:44:33.218Z,77.88
2023-08-04T09:45:33.266Z,78.39
2023-08-04T09:46:33.223Z,76.97
2023-08-04T09:47:33.253Z,77.58
2023-08-04T09:48:33.198Z,77.21
2023-08-04T09:49:33.179Z,77.62
2023-08-04T09:50:33.142Z,77.08
2023-08-04T09:51:33.132Z,78.59
2023-08-04T09:52:33.177Z,78.69
2023-08-04T09:53:33.131Z,78.59
2023-08-04T09:54:33.128Z,78.89
2023-08-04T09:55:33.160Z,80.40
2023-08-04T09:56:33.063Z,80.80
2023-08-04T09:57:33.086Z,80.40
2023-08-04T09:58:33.115Z,80.40
2023-08-04T09:59:33.029Z,80.46
2023-08-04T10:00:33.045Z,80.06
2023-08-04T10:01:33.163Z,79.96
2023-08-04T10:02:33.121Z,78.96
2023-08-04T10:03:33.050Z,78.96
2023-08-04T10:04:33.053Z,78.75
2023-08-04T10:05:32.953Z,77.14
2023-08-04T10:06:33.045Z,76.14
2023-08-04T10:07:33.158Z,76.74
2023-08-04T10:08:32.899Z,78.15
2023-08-04T10:09:32.939Z,76.84
2023-08-04T10:10:32.910Z,76.23
2023-08-04T10:11:32.866Z,75.13
2023-08-04T10:12:32.871Z,76.43
2023-08-04T10:13:32.862Z,75.93
2023-08-04T10:14:32.825Z,77.24
2023-08-04T10:15:32.862Z,77.44
2023-08-04T10:16:33.044Z,77.84
2023-08-04T10:17:32.877Z,78.85
2023-08-04T10:18:32.790Z,79.46
2023-08-04T10:19:32.801Z,79.16
2023-08-04T10:20:32.751Z,77.81
2023-08-04T10:21:33.413Z,78.81
2023-08-04T10:22:32.777Z,78.01
2023-08-04T10:23:32.737Z,78.41
2023-08-04T10:24:32.675Z,78.01
2023-08-04T10:25:32.752Z,77.11
2023-08-04T10:26:32.653Z,77.91
2023-08-04T10:27:32.645Z,77.91
2023-08-04T10:28:32.638Z,78.21
2023-08-04T10:29:32.652Z,78.31
2023-08-04T10:30:47.813Z,78.51
2023-08-04T10:31:32.672Z,78.31
2023-08-04T10:32:32.678Z,78.91
2023-08-04T10:33:32.560Z,78.21
2023-08-04T10:34:32.666Z,78.71
2023-08-04T10:35:32.544Z,79.08
2023-08-04T10:36:32.619Z,78.67
2023-08-04T10:37:32.520Z,79.58
2023-08-04T10:38:32.546Z,78.58
2023-08-04T10:39:32.579Z,78.67
2023-08-04T10:40:32.664Z,77.87
2023-08-04T10:41:32.471Z,78.78
2023-08-04T10:42:32.444Z,78.67
2023-08-04T10:43:32.471Z,78.67
2023-08-04T10:44:32.466Z,78.34
2023-08-04T10:45:32.426Z,78.23
2023-08-04T10:46:34.370Z,77.94
2023-08-04T10:47:32.493Z,78.44
2023-08-04T10:48:32.385Z,77.94
2023-08-04T10:49:32.391Z,78.44
2023-08-04T10:50:33.166Z,78.54
2023-08-04T10:51:32.325Z,77.94
2023-08-04T10:52:33.760Z,77.73
2023-08-04T10:53:32.302Z,78.74
2023-08-04T10:54:32.288Z,78.64
2023-08-04T10:55:32.313Z,77.63
2023-08-04T10:56:32.290Z,77.23
2023-08-04T10:57:32.292Z,77.63
2023-08-04T10:58:32.293Z,77.53
2023-08-04T10:59:32.224Z,77.73
2023-08-04T11:00:32.324Z,76.83
2023-08-04T11:01:32.353Z,78.23
2023-08-04T11:02:32.295Z,78.03
2023-08-04T11:03:32.153Z,76.32
2023-08-04T11:04:32.202Z,76.83
2023-08-04T11:05:32.220Z,75.62
2023-08-04T11:06:32.106Z,76.93
2023-08-04T11:07:32.190Z,76.43
2023-08-04T11:08:32.109Z,76.12
2023-08-04T11:09:32.076Z,75.82
2023-08-04T11:10:32.089Z,76.53
2023-08-04T11:11:32.039Z,76.73
2023-08-04T11:12:32.040Z,75.52
2023-08-04T11:14:32.060Z,75.05
2023-08-04T11:15:31.983Z,76.06
2023-08-04T11:16:32.026Z,76.46
2023-08-04T11:17:32.075Z,76.26
2023-08-04T11:18:32.010Z,76.46
2023-08-04T11:19:32.014Z,76.16
2023-08-04T11:20:33.624Z,77.07
2023-08-04T11:21:31.924Z,76.36
2023-08-04T11:22:31.994Z,75.76
2023-08-04T11:23:31.888Z,76.46
2023-08-04T11:24:31.875Z,77.27
2023-08-04T11:25:31.854Z,77.97
2023-08-04T11:26:31.879Z,77.87
2023-08-04T11:27:31.831Z,78.88
2023-08-04T11:28:31.823Z,78.58
2023-08-04T11:29:31.803Z,78.47
2023-08-04T11:30:31.784Z,78.27
2023-08-04T11:31:31.826Z,78.47
2023-08-04T11:32:31.852Z,78.88
2023-08-04T11:33:31.760Z,78.88
2023-08-04T11:34:31.731Z,79.58
2023-08-04T11:35:31.897Z,80.39
2023-08-04T11:36:31.717Z,80.08
2023-08-04T11:37:31.731Z,80.69
2023-08-04T11:38:31.701Z,80.79
2023-08-04T11:39:31.664Z,81.29
2023-08-04T11:40:31.653Z,81.09
2023-08-04T11:41:31.655Z,80.89
2023-08-04T11:42:31.770Z,80.58
2023-08-04T11:43:31.692Z,80.69
2023-08-04T11:44:31.622Z,80.29
2023-08-04T11:45:31.608Z,79.99
2023-08-04T11:46:31.587Z,79.79
2023-08-04T11:47:31.642Z,80.39
2023-08-04T11:48:31.644Z,80.08
2023-08-04T11:49:31.540Z,80.19
2023-08-04T11:50:31.528Z,80.85
2023-08-04T11:51:31.514Z,80.35
2023-08-04T11:52:31.500Z,80.95
2023-08-04T11:53:31.484Z,79.74
2023-08-04T11:54:31.503Z,79.24
2023-08-04T11:55:31.451Z,79.44
2023-08-04T11:56:35.372Z,80.35
2023-08-04T11:57:31.425Z,79.14
2023-08-04T11:58:31.412Z,79.44
2023-08-04T11:59:31.452Z,79.94
2023-08-04T12:00:31.406Z,79.44
2023-08-04T12:01:31.510Z,80.75
2023-08-04T12:02:31.590Z,80.85
2023-08-04T12:03:31.480Z,80.65
2023-08-04T12:04:31.757Z,80.75
2023-08-04T12:05:31.448Z,79.74
2023-08-04T12:06:31.364Z,79.85
2023-08-04T12:07:31.300Z,79.54
2023-08-04T12:08:31.275Z,79.85
2023-08-04T12:09:31.289Z,78.50
2023-08-04T12:10:31.256Z,78.90
2023-08-04T12:11:31.269Z,79.71
2023-08-04T12:12:31.218Z,78.90
2023-08-04T12:13:31.209Z,78.40
2023-08-04T12:14:31.222Z,78.20
2023-08-04T12:15:31.197Z,78.20
2023-08-04T12:16:31.255Z,78.00
2023-08-04T12:17:31.182Z,78.00
2023-08-04T12:18:31.151Z,78.20
2023-08-04T12:19:31.130Z,78.80
2023-08-04T12:20:31.122Z,78.90
2023-08-04T12:21:31.117Z,79.50
2023-08-04T12:22:31.124Z,78.10
2023-08-04T12:23:31.152Z,78.90
2023-08-04T12:24:31.057Z,78.50
2023-08-04T12:25:31.044Z,77.80
2023-08-04T12:26:31.061Z,77.59
2023-08-04T12:27:31.070Z,78.00
2023-08-04T12:28:31.001Z,78.06
2023-08-04T12:29:31.013Z,77.46
2023-08-04T12:30:30.996Z,77.86
2023-08-04T12:31:31.109Z,77.76
2023-08-04T12:32:31.125Z,79.06
2023-08-04T12:33:31.006Z,78.36
2023-08-04T12:34:30.927Z,78.42
2023-08-04T12:35:30.929Z,77.62
2023-08-04T12:36:30.913Z,76.92
2023-08-04T12:37:30.934Z,76.82
2023-08-04T12:38:30.868Z,76.92
2023-08-04T12:39:30.848Z,77.02
2023-08-04T12:44:08.335Z,75.71
2023-08-04T12:45:03.028Z,75.42
2023-08-04T12:46:03.075Z,77.12
2023-08-04T12:47:03.090Z,77.42
2023-08-04T12:48:03.008Z,77.22
2023-08-04T12:49:02.971Z,76.52
2023-08-04T12:50:09.849Z,76.62
2023-08-04T12:51:02.959Z,75.92
2023-08-04T12:52:02.931Z,76.72
2023-08-04T12:53:02.945Z,76.52
2023-08-04T12:54:02.900Z,76.21
2023-08-04T12:55:02.906Z,76.42
2023-08-04T12:56:02.910Z,76.32
2023-08-04T12:57:02.862Z,76.62